Detall de PIREP

Printer-friendly versionPDF version

[2015/06/06 17:18:00]
Flight IATA:CT1063
Pilot Number:026
Company ICAO:CAT
Aircraft Type:DC85/A
PAX:132
Aircraft Registration:PAX
Departing Airport: LTBA
Destination Airport: LGAV
Alternate Airport:LGTS
Online: VATSIM
Route:BIG UN604 KEPIR
Flight Level:F340
No Slew and time accel
No pause
Crash detect
Detect pilot in Cockpit between each 30 and 45 minutes
17:18 Zero fuel Weight: 179868 Lbs, Fuel Weight: 30002 Lbs
17:18 VATSIM:LTBA 061638Z 02014KT 9999 -SHRA BKN020 21/17 Q1019 NOSIG RMK RWY17L 04014KT 010V070 RWY05 02015KT RWY23 02014KT
17:18 VATSIM:LGAV 061620Z 01016G26KT 9999 FEW020 SCT035 24/12 Q1017 NOSIG
17:18 ALMOGÀVERS ROUTE / LEG 4
17:26 Parking Brakes off
17:35 Take-off
17:35 Take off Weight: 208824 Lbs
17:35 Wind: 045º @ 014 Knots Heading: 002º
17:35 POS N40º 59´ 06´´ E028º 48´ 32´´
17:36 Gear Up: 161 Knots
17:36 Flaps:2 at 161 Knots
17:37 Flaps:1 at 165 Knots
17:37 Flaps:0 at 138 Knots
17:38 Gear Down: 185 Knots
17:38 Gear Up: 189 Knots
17:38 Gear Down: 213 Knots
17:38 Gear Up: 223 Knots
17:51 Wind:015º@060 Knots Heading: 206º Ground Speed: 431 Knots Altitude 26833 ft
17:57 TOC
17:57 Fuel Weight: 21776 Lb
18:06 Wind:021º@009 Knots Heading: 237º Ground Speed: 407 Knots Altitude 34038 ft
18:07 TOD
18:07 Fuel Weight: 19827 Lb
18:21 Wind:002º@039 Knots Heading: 212º Ground Speed: 439 Knots Altitude 16131 ft
18:30 Flaps:1 at 200 Knots
18:32 Gear Down: 158 Knots
18:32 Flaps:2 at 206 Knots
18:33 Flaps:3 at 197 Knots
18:33 Flaps:4 at 167 Knots
18:34 TouchDown:Rate -197 ft/min Speed: 133 Knots
18:34 VATSIM:LGAV 061750Z 36012KT 9999 FEW020 BKN025 23/13 Q1017 NOSIG
18:34 Land
18:34 Wind:357º@012 Knots
18:34 Heading: 051º
18:34 Flight Duration: 00:59
18:34 Landing Weight: 194819 Lbs
18:34 POS N37º 56´ 12´´ E023º 56´ 02´´
18:37 Parking brakes on
18:37 Block to Block Duration: 01:11
18:37 Final Fuel: 14854 Lbls
18:37 Spent Fuel: 15147 Lbls
18:37 Flight Length: 352 NM
18:37 TOD Land Length: 154 NM

Exportar CSV

Powered by Drupal - Modified by Danger4k